Time;durP1;ratioP1;P1;durP2;ratioP2;P2;SDS_P1;SDS_P2;PMS_P1;PMS_P2;Temp;Humidity;BMP_temperature;BMP_pressure;BME280_temperature;BME280_humidity;BME280_pressure;Samples;Min_cycle;Max_cycle;Signal;HPM_P1;HPM_P2
2022/11/12 00:02:12;;;;;;;14.10;10.50;;;7.00;99.90;;;;;;5040225;28;20660;-86
2022/11/12 00:05:06;;;;;;;12.65;11.55;;;6.90;99.90;;;;;;5039783;28;20210;-86
2022/11/12 00:10:28;;;;;;;11.15;10.15;;;6.90;99.90;;;;;;5053713;28;20209;-87
2022/11/12 00:12:55;;;;;;;12.73;10.02;;;6.80;99.90;;;;;;5055482;28;20189;-86
2022/11/12 00:15:22;;;;;;;11.27;10.05;;;6.80;99.90;;;;;;5055200;28;20371;-87
2022/11/12 00:17:49;;;;;;;11.65;10.52;;;6.80;99.90;;;;;;5050765;28;20308;-87
2022/11/12 00:20:16;;;;;;;12.07;10.88;;;6.70;99.90;;;;;;5035459;28;20580;-87
2022/11/12 00:22:43;;;;;;;12.85;10.07;;;6.70;99.90;;;;;;5035408;28;20663;-87
2022/11/12 00:25:09;;;;;;;17.63;11.00;;;6.70;99.90;;;;;;5037258;28;20674;-87
2022/11/12 00:27:40;;;;;;;13.15;11.75;;;6.70;99.90;;;;;;5040117;28;20222;-87
2022/11/12 00:30:08;;;;;;;10.98;9.98;;;6.70;99.90;;;;;;5038810;28;20198;-87
2022/11/12 00:32:36;;;;;;;11.30;10.07;;;6.60;99.90;;;;;;5038414;28;20233;-87
2022/11/12 00:35:03;;;;;;;15.00;12.35;;;6.60;99.90;;;;;;5038533;28;20222;-87
2022/11/12 00:37:30;;;;;;;11.10;9.55;;;6.60;99.90;;;;;;5037987;28;20295;-87
2022/11/12 00:39:56;;;;;;;14.18;10.90;;;6.50;99.90;;;;;;5037918;28;20554;-88
2022/11/12 00:42:23;;;;;;;11.40;10.30;;;6.60;99.90;;;;;;5038742;28;20212;-87
2022/11/12 00:44:52;;;;;;;12.02;10.82;;;6.60;99.90;;;;;;5036919;28;20248;-87
2022/11/12 00:47:19;;;;;;;10.80;9.70;;;6.50;99.90;;;;;;5038241;28;20209;-88
2022/11/12 00:49:45;;;;;;;10.63;9.57;;;6.50;99.90;;;;;;5036498;28;20672;-87
2022/11/12 00:52:12;;;;;;;10.82;9.82;;;6.50;99.90;;;;;;5036398;28;20312;-87
2022/11/12 00:54:39;;;;;;;12.10;9.73;;;6.50;99.90;;;;;;5036337;28;20321;-87
2022/11/12 00:57:06;;;;;;;10.38;9.38;;;6.50;99.90;;;;;;5036299;28;20211;-87
2022/11/12 00:59:33;;;;;;;10.40;9.18;;;6.50;99.90;;;;;;5035759;28;20307;-87
2022/11/12 01:02:01;;;;;;;10.27;9.35;;;6.50;99.90;;;;;;5036537;28;20210;-88
2022/11/12 01:04:28;;;;;;;11.38;9.95;;;6.40;99.90;;;;;;5035053;28;20209;-87
2022/11/12 01:06:55;;;;;;;10.38;9.38;;;6.40;99.90;;;;;;5037098;28;20212;-87
2022/11/12 01:09:22;;;;;;;12.68;10.20;;;6.40;99.90;;;;;;5035483;28;20237;-87
2022/11/12 01:11:49;;;;;;;10.75;9.85;;;6.40;99.90;;;;;;5035452;28;20301;-87
2022/11/12 01:14:15;;;;;;;12.25;11.13;;;6.40;99.90;;;;;;5035880;28;20253;-87
2022/11/12 01:16:42;;;;;;;11.48;10.38;;;6.40;99.90;;;;;;5035813;28;20572;-87
2022/11/12 01:19:12;;;;;;;12.75;10.18;;;6.40;99.90;;;;;;5035853;28;20246;-88
2022/11/12 01:21:41;;;;;;;11.73;10.63;;;6.30;99.90;;;;;;5035408;28;20210;-88
2022/11/12 01:24:08;;;;;;;10.15;9.35;;;6.30;99.90;;;;;;5034672;28;20204;-88
2022/11/12 01:26:36;;;;;;;9.80;8.90;;;6.20;99.90;;;;;;5038199;28;20290;-88
2022/11/12 01:29:03;;;;;;;10.82;9.88;;;6.20;99.90;;;;;;5036527;28;20306;-87
2022/11/12 01:31:32;;;;;;;10.98;10.00;;;6.30;99.90;;;;;;5037632;28;20293;-87
2022/11/12 01:34:01;;;;;;;12.05;10.82;;;6.20;99.90;;;;;;5037195;28;20294;-87
2022/11/12 01:36:35;;;;;;;11.18;10.13;;;6.20;99.90;;;;;;5036882;28;20203;-87
2022/11/12 01:39:03;;;;;;;12.52;11.32;;;6.20;99.90;;;;;;5036806;28;20257;-87
2022/11/12 01:41:33;;;;;;;12.95;11.68;;;6.20;99.90;;;;;;5036462;28;20202;-87
2022/11/12 01:44:16;;;;;;;10.43;9.48;;;6.10;99.90;;;;;;5035356;28;20233;-87
2022/11/12 01:47:06;;;;;;;10.27;9.43;;;6.10;99.90;;;;;;5037815;28;20289;-87
2022/11/12 01:49:39;;;;;;;10.57;9.57;;;6.10;99.90;;;;;;5031997;28;20290;-87
2022/11/12 01:52:17;;;;;;;13.05;8.82;;;6.00;99.90;;;;;;5036242;28;20575;-88
2022/11/12 01:54:48;;;;;;;10.63;9.63;;;5.90;99.90;;;;;;5016491;28;20211;-87
2022/11/12 01:57:17;;;;;;;8.55;7.65;;;5.90;99.90;;;;;;5031491;28;20195;-88
2022/11/12 01:59:47;;;;;;;8.68;7.88;;;5.90;99.90;;;;;;5035156;28;20575;-87
2022/11/12 02:02:14;;;;;;;9.85;8.80;;;5.80;99.90;;;;;;5034468;28;20202;-87
2022/11/12 02:04:43;;;;;;;9.20;8.35;;;5.80;99.90;;;;;;5035984;28;20289;-87
2022/11/12 02:07:12;;;;;;;10.02;9.05;;;5.80;99.90;;;;;;5033335;28;20285;-87
2022/11/12 02:09:39;;;;;;;9.50;7.82;;;5.80;99.90;;;;;;5033013;28;20230;-87
2022/11/12 02:12:06;;;;;;;8.77;7.97;;;5.80;99.90;;;;;;5033052;28;20209;-87
2022/11/12 02:14:33;;;;;;;9.57;8.07;;;5.80;99.90;;;;;;5033182;28;20282;-87
2022/11/12 02:17:00;;;;;;;9.52;8.65;;;5.80;99.90;;;;;;5033192;28;20256;-87
2022/11/12 02:19:27;;;;;;;9.48;8.63;;;5.80;99.90;;;;;;5032974;28;20230;-87
2022/11/12 02:21:56;;;;;;;8.65;7.85;;;5.90;99.90;;;;;;5032826;28;20203;-87
2022/11/12 02:24:34;;;;;;;9.10;8.30;;;5.80;99.90;;;;;;5033201;28;20206;-87
2022/11/12 02:27:01;;;;;;;9.75;8.75;;;5.80;99.90;;;;;;5033049;28;20195;-87
2022/11/12 02:29:28;;;;;;;9.15;8.35;;;5.80;99.90;;;;;;5032708;28;20245;-87
2022/11/12 02:31:55;;;;;;;10.32;9.52;;;5.80;99.90;;;;;;5032853;28;20565;-87
2022/11/12 02:34:22;;;;;;;9.55;8.75;;;5.80;99.90;;;;;;5032908;28;20276;-87
2022/11/12 02:36:48;;;;;;;9.90;9.10;;;5.80;99.90;;;;;;5033181;28;20295;-87
2022/11/12 02:39:17;;;;;;;9.68;8.63;;;5.80;99.90;;;;;;5032558;28;20313;-87
2022/11/12 02:41:44;;;;;;;9.95;9.15;;;5.80;99.90;;;;;;5032678;28;20300;-88
2022/11/12 02:44:11;;;;;;;11.20;10.10;;;5.80;99.90;;;;;;5032840;28;20206;-87
2022/11/12 02:46:38;;;;;;;10.23;9.27;;;5.80;99.90;;;;;;5032716;28;20288;-87
2022/11/12 02:49:05;;;;;;;10.10;9.10;;;5.60;99.90;;;;;;5032537;28;20223;-86
2022/11/12 02:51:31;;;;;;;9.52;8.60;;;5.60;99.90;;;;;;5032644;28;20576;-87
2022/11/12 02:53:58;;;;;;;10.18;9.20;;;5.60;99.90;;;;;;5031958;28;20614;-87
2022/11/12 02:56:27;;;;;;;8.30;7.60;;;5.60;99.90;;;;;;5032486;28;20321;-87
2022/11/12 02:58:54;;;;;;;8.73;8.00;;;5.60;99.90;;;;;;5048504;28;20832;-87
2022/11/12 03:01:21;;;;;;;8.18;7.45;;;5.60;99.90;;;;;;5052244;28;20633;-88
2022/11/12 03:03:47;;;;;;;9.10;8.30;;;5.50;99.90;;;;;;5053020;28;20269;-87
2022/11/12 03:06:14;;;;;;;8.10;7.35;;;5.50;99.90;;;;;;5040447;28;20198;-87
2022/11/12 03:08:41;;;;;;;9.23;8.43;;;5.50;99.90;;;;;;5040621;28;20238;-87
2022/11/12 03:11:10;;;;;;;8.00;7.20;;;5.50;99.90;;;;;;5049834;28;20206;-88
2022/11/12 03:13:39;;;;;;;9.20;8.50;;;5.40;99.90;;;;;;5052531;28;20209;-87
2022/11/12 03:16:06;;;;;;;8.80;8.00;;;5.50;99.90;;;;;;5048520;28;20258;-87
2022/11/12 03:18:33;;;;;;;8.25;7.63;;;5.40;99.90;;;;;;5042597;28;20229;-87
2022/11/12 03:21:00;;;;;;;8.73;7.93;;;5.40;99.90;;;;;;5042347;28;20202;-87
2022/11/12 03:23:27;;;;;;;8.88;8.10;;;5.40;99.90;;;;;;5044085;28;20206;-87
2022/11/12 03:25:54;;;;;;;7.95;7.35;;;5.30;99.90;;;;;;5035934;28;20216;-87
2022/11/12 03:28:21;;;;;;;6.60;6.10;;;5.30;99.90;;;;;;5034394;28;20226;-87
2022/11/12 03:30:51;;;;;;;8.40;7.70;;;5.30;99.90;;;;;;5039648;28;20211;-88
2022/11/12 03:33:17;;;;;;;8.48;7.80;;;5.40;99.90;;;;;;5041762;28;20201;-87
2022/11/12 03:35:44;;;;;;;8.48;6.68;;;5.30;99.90;;;;;;5034566;28;20233;-87
2022/11/12 03:38:11;;;;;;;6.35;5.75;;;5.30;99.90;;;;;;5033944;28;20265;-87
2022/11/12 03:40:38;;;;;;;7.38;6.45;;;5.30;99.90;;;;;;5033759;28;20206;-87
2022/11/12 03:43:05;;;;;;;7.55;6.95;;;5.30;99.90;;;;;;5033501;28;20213;-87
2022/11/12 03:45:32;;;;;;;6.70;6.20;;;5.30;99.90;;;;;;5033100;28;20572;-87
2022/11/12 03:48:00;;;;;;;7.18;6.57;;;5.20;99.90;;;;;;5032300;28;20314;-87
2022/11/12 03:50:29;;;;;;;7.55;6.88;;;5.20;99.90;;;;;;5032868;28;20206;-87
2022/11/12 03:52:58;;;;;;;7.80;7.10;;;5.20;99.90;;;;;;5032946;28;20209;-87
2022/11/12 03:55:27;;;;;;;6.75;6.15;;;5.20;99.90;;;;;;5032366;28;20633;-87
2022/11/12 03:57:55;;;;;;;7.82;7.22;;;5.20;99.90;;;;;;5032265;28;20239;-87
2022/11/12 04:00:24;;;;;;;6.85;6.25;;;5.10;99.90;;;;;;5032190;28;20206;-87
2022/11/12 04:02:51;;;;;;;8.05;7.35;;;5.10;99.90;;;;;;5032287;28;20214;-87
2022/11/12 04:10:50;;;;;;;9.50;8.80;;;4.90;99.90;;;;;;5035566;28;20192;-88
2022/11/12 04:13:28;;;;;;;8.98;8.07;;;4.90;99.90;;;;;;5035568;28;20214;-87
2022/11/12 04:21:53;;;;;;;9.32;8.50;;;5.00;99.90;;;;;;5045062;28;20194;-87
2022/11/12 04:27:09;;;;;;;8.27;7.53;;;5.00;99.90;;;;;;5035468;28;20682;-87
2022/11/12 04:32:21;;;;;;;7.50;6.80;;;5.00;99.90;;;;;;5035288;28;20182;-88
2022/11/12 04:34:48;;;;;;;7.70;7.10;;;5.10;99.90;;;;;;5035214;28;20317;-87
2022/11/12 04:37:16;;;;;;;6.82;6.28;;;5.10;99.90;;;;;;5035271;28;20683;-88
2022/11/12 04:39:43;;;;;;;7.30;6.70;;;5.10;99.90;;;;;;5035316;28;20209;-87
2022/11/12 04:45:02;;;;;;;7.30;6.70;;;5.30;99.90;;;;;;5034878;28;20178;-87
2022/11/12 04:47:31;;;;;;;6.88;6.28;;;5.30;99.90;;;;;;5034814;28;20701;-88
2022/11/12 04:49:59;;;;;;;8.05;7.25;;;5.30;99.90;;;;;;5035339;28;20293;-87
2022/11/12 04:52:28;;;;;;;7.88;7.13;;;5.40;99.90;;;;;;5034828;28;20206;-87
2022/11/12 04:54:55;;;;;;;6.72;6.22;;;5.40;99.90;;;;;;5034405;28;20218;-87
2022/11/12 04:57:23;;;;;;;6.55;5.75;;;5.40;99.90;;;;;;5034475;28;20207;-87
2022/11/12 04:59:49;;;;;;;7.72;7.22;;;5.40;99.90;;;;;;5034489;28;20297;-87
2022/11/12 05:02:17;;;;;;;7.65;7.00;;;5.50;99.90;;;;;;5034875;28;20202;-87
2022/11/12 05:04:44;;;;;;;7.28;6.68;;;5.50;99.90;;;;;;5034872;28;20210;-87
2022/11/12 05:07:11;;;;;;;7.13;6.53;;;5.50;99.90;;;;;;5034656;28;20328;-87
2022/11/12 05:09:39;;;;;;;5.90;5.50;;;5.50;99.90;;;;;;5034306;28;20757;-87
2022/11/12 05:12:06;;;;;;;6.35;5.75;;;5.50;99.90;;;;;;5034703;28;20210;-87
2022/11/12 05:14:33;;;;;;;7.50;6.72;;;5.50;99.90;;;;;;5050542;28;20293;-87
2022/11/12 05:17:01;;;;;;;6.30;5.50;;;5.50;99.90;;;;;;5033157;28;20226;-87
2022/11/12 05:19:28;;;;;;;7.60;7.00;;;5.50;99.90;;;;;;5034015;28;20222;-88
2022/11/12 05:22:07;;;;;;;7.20;6.60;;;5.50;99.90;;;;;;5034549;28;20214;-87
2022/11/12 05:24:36;;;;;;;7.90;6.78;;;5.50;99.90;;;;;;5034492;28;20256;-87
2022/11/12 05:27:06;;;;;;;6.53;5.93;;;5.50;99.90;;;;;;5034717;28;20199;-87
2022/11/12 05:29:33;;;;;;;6.40;5.80;;;5.50;99.90;;;;;;5034414;28;20230;-87
2022/11/12 05:32:00;;;;;;;7.53;6.88;;;5.50;99.90;;;;;;5034176;28;20268;-87
2022/11/12 05:34:42;;;;;;;5.55;5.05;;;5.50;99.90;;;;;;5034215;28;20207;-87
2022/11/12 05:37:11;;;;;;;6.45;5.85;;;5.50;99.90;;;;;;5034128;28;20238;-87
2022/11/12 05:39:38;;;;;;;6.53;5.65;;;5.50;99.90;;;;;;5033869;28;20222;-88
2022/11/12 05:42:07;;;;;;;5.72;5.22;;;5.50;99.90;;;;;;5033703;28;20216;-87
2022/11/12 05:44:33;;;;;;;4.45;4.15;;;5.50;99.90;;;;;;5034344;28;20249;-87
2022/11/12 05:47:00;;;;;;;6.28;5.78;;;5.50;99.90;;;;;;5033816;28;20202;-88
2022/11/12 05:49:27;;;;;;;5.72;4.95;;;5.50;99.90;;;;;;5034103;28;20226;-87
2022/11/12 05:51:54;;;;;;;6.03;5.57;;;5.50;99.90;;;;;;5035139;28;20591;-87
2022/11/12 05:54:23;;;;;;;5.63;5.22;;;5.50;99.90;;;;;;5033834;28;20210;-87
2022/11/12 05:56:51;;;;;;;6.68;6.18;;;5.50;99.90;;;;;;5033425;28;20225;-87
2022/11/12 05:59:21;;;;;;;5.45;4.90;;;5.50;99.90;;;;;;5033761;28;20225;-87
2022/11/12 06:01:47;;;;;;;6.57;5.90;;;5.40;99.90;;;;;;5033359;28;20717;-87
2022/11/12 06:04:15;;;;;;;6.47;5.35;;;5.40;99.90;;;;;;5045238;28;20198;-89
2022/11/12 06:06:43;;;;;;;7.03;6.43;;;5.40;99.90;;;;;;5035932;28;20206;-87
2022/11/12 06:11:39;;;;;;;9.43;6.00;;;5.30;99.90;;;;;;5059661;28;20217;-78
2022/11/12 06:14:06;;;;;;;12.88;6.32;;;5.20;99.90;;;;;;5080023;28;20223;-78
2022/11/12 06:16:34;;;;;;;29.45;8.10;;;5.20;99.90;;;;;;5079824;28;20205;-78
2022/11/12 06:19:01;;;;;;;14.90;6.13;;;5.10;99.90;;;;;;5059195;28;20228;-78
2022/11/12 06:21:27;;;;;;;33.17;9.35;;;5.10;99.90;;;;;;5059303;28;20202;-77
2022/11/12 06:23:56;;;;;;;20.08;7.25;;;5.00;99.90;;;;;;5060292;28;20216;-78
2022/11/12 06:26:25;;;;;;;20.05;7.65;;;4.90;99.90;;;;;;5060223;28;20233;-78
2022/11/12 06:28:52;;;;;;;31.85;8.30;;;4.90;99.90;;;;;;5052018;28;20729;-78
2022/11/12 06:31:19;;;;;;;17.92;8.13;;;4.80;99.90;;;;;;5040200;28;20210;-78
2022/11/12 06:33:48;;;;;;;29.33;8.50;;;4.80;99.90;;;;;;5039658;28;20203;-78
2022/11/12 06:36:17;;;;;;;18.10;6.65;;;4.80;99.90;;;;;;5039840;28;20202;-78
2022/11/12 06:38:44;;;;;;;21.17;7.47;;;4.80;99.90;;;;;;5055312;28;20224;-78
2022/11/12 06:41:12;;;;;;;12.45;8.27;;;4.80;99.90;;;;;;5047458;28;20222;-78
2022/11/12 06:43:39;;;;;;;41.90;8.75;;;4.80;99.90;;;;;;5039415;28;20210;-78
2022/11/12 06:46:08;;;;;;;8.77;7.35;;;4.80;99.90;;;;;;5049690;28;20221;-79
2022/11/12 07:02:28;;;;;;;10.23;7.68;;;5.10;99.90;;;;;;4987831;28;20204;-81
2022/11/12 08:24:18;;;;;;;7.43;6.70;;;7.00;99.90;;;;;;4880455;29;20204;-82
2022/11/12 11:10:46;;;;;;;5.50;5.00;;;19.20;95.10;;;;;;4947604;29;20464;-84
2022/11/12 12:41:52;;;;;;;5.23;4.83;;;20.40;79.60;;;;;;4728277;30;20500;-83
2022/11/12 12:44:19;;;;;;;5.77;4.30;;;20.40;79.20;;;;;;4746726;30;20534;-85
2022/11/12 12:46:56;;;;;;;4.90;4.50;;;20.40;78.30;;;;;;4852385;29;20463;-84
2022/11/12 12:52:14;;;;;;;5.17;4.77;;;20.30;78.10;;;;;;5030747;28;20445;-82
2022/11/12 12:54:58;;;;;;;4.77;4.43;;;20.30;79.30;;;;;;5051867;28;20447;-81
2022/11/12 12:57:30;;;;;;;6.60;4.50;;;20.20;78.90;;;;;;5054180;28;20506;-82
2022/11/12 13:00:26;;;;;;;4.93;4.53;;;20.10;79.20;;;;;;5058938;28;20523;-83
2022/11/12 13:02:53;;;;;;;4.73;4.30;;;20.10;80.10;;;;;;5059916;28;20444;-82
2022/11/12 13:05:29;;;;;;;5.30;4.90;;;19.90;79.40;;;;;;5059049;28;20818;-83
2022/11/12 13:07:59;;;;;;;4.70;4.30;;;19.50;80.20;;;;;;5056618;28;20491;-82
2022/11/12 13:10:54;;;;;;;5.70;5.20;;;19.30;81.70;;;;;;5059279;28;20454;-83
2022/11/12 13:13:34;;;;;;;5.20;4.80;;;19.20;82.10;;;;;;5059078;28;20436;-83
2022/11/12 13:16:02;;;;;;;5.60;5.03;;;19.00;82.80;;;;;;5047840;28;20463;-83
2022/11/12 13:18:57;;;;;;;4.90;4.50;;;18.80;83.60;;;;;;5039262;28;20473;-83
2022/11/12 13:21:24;;;;;;;5.77;5.27;;;18.80;82.80;;;;;;5043683;28;20494;-83
2022/11/12 13:24:06;;;;;;;6.53;5.60;;;18.80;82.90;;;;;;5059685;28;20479;-83
2022/11/12 13:26:46;;;;;;;6.57;5.97;;;18.80;83.00;;;;;;5058551;28;20479;-83
2022/11/12 13:29:40;;;;;;;7.40;6.73;;;18.70;83.30;;;;;;5039437;28;20484;-83
2022/11/12 13:32:29;;;;;;;6.50;5.40;;;18.50;83.70;;;;;;5056704;28;20451;-83
2022/11/12 13:35:28;;;;;;;5.80;5.30;;;18.30;85.20;;;;;;5059196;28;20453;-83
2022/11/12 13:37:58;;;;;;;7.20;6.67;;;18.20;86.00;;;;;;5037874;28;20476;-83
2022/11/12 13:40:38;;;;;;;5.93;5.50;;;18.00;86.30;;;;;;5047655;28;20463;-83
2022/11/12 13:43:11;;;;;;;5.97;5.57;;;17.80;86.50;;;;;;5039364;28;20436;-83
2022/11/12 13:45:45;;;;;;;4.63;4.23;;;17.60;87.00;;;;;;5052209;28;20465;-83
2022/11/12 13:48:17;;;;;;;9.80;6.10;;;17.50;89.30;;;;;;5058655;28;20474;-82
2022/11/12 13:50:50;;;;;;;5.60;5.17;;;17.40;89.00;;;;;;5059378;28;20442;-82
2022/11/12 13:53:22;;;;;;;6.10;5.50;;;17.30;90.00;;;;;;5058909;28;20446;-82
2022/11/12 13:55:49;;;;;;;5.73;5.17;;;17.10;90.30;;;;;;5057320;28;20443;-82
2022/11/12 13:58:25;;;;;;;5.73;5.23;;;17.00;90.60;;;;;;5058472;28;20475;-82
2022/11/12 14:00:54;;;;;;;5.43;5.03;;;16.80;90.90;;;;;;5058093;28;20438;-82
2022/11/12 14:03:21;;;;;;;5.30;4.90;;;16.70;91.30;;;;;;5059173;28;20449;-82
2022/11/12 14:05:50;;;;;;;5.17;4.73;;;16.60;91.60;;;;;;5059062;28;20445;-82
2022/11/12 14:08:31;;;;;;;6.70;6.07;;;16.40;92.00;;;;;;5056845;28;20479;-83
2022/11/12 14:11:13;;;;;;;5.43;5.03;;;16.30;92.40;;;;;;5066731;28;20462;-84
2022/11/12 14:13:52;;;;;;;6.50;5.77;;;16.20;92.70;;;;;;5067609;28;20457;-83
2022/11/12 14:16:32;;;;;;;4.57;4.27;;;16.10;93.20;;;;;;5058549;28;20449;-83
2022/11/12 14:19:18;;;;;;;5.63;4.90;;;16.10;93.20;;;;;;5060540;28;20481;-84
2022/11/12 14:21:59;;;;;;;5.37;4.97;;;16.00;93.60;;;;;;5062127;28;20600;-84
2022/11/12 14:24:25;;;;;;;5.67;5.27;;;15.80;93.70;;;;;;5062522;28;20464;-84
2022/11/12 14:26:53;;;;;;;5.50;5.10;;;15.80;94.10;;;;;;5055150;28;20495;-84
2022/11/12 14:29:20;;;;;;;5.57;5.10;;;15.70;94.20;;;;;;5060845;28;20480;-83
2022/11/12 14:32:00;;;;;;;5.80;5.40;;;15.50;94.70;;;;;;5061350;28;20454;-83
2022/11/12 14:34:29;;;;;;;6.50;6.00;;;15.40;95.10;;;;;;5061884;28;20433;-84
2022/11/12 14:36:56;;;;;;;6.17;5.50;;;15.30;95.20;;;;;;5048953;28;20453;-83
2022/11/12 14:39:24;;;;;;;7.10;6.50;;;15.20;95.40;;;;;;5067470;28;20504;-83
2022/11/12 14:41:52;;;;;;;5.87;5.30;;;15.00;95.60;;;;;;5043707;28;20948;-83
2022/11/12 14:44:22;;;;;;;7.27;6.77;;;14.90;96.00;;;;;;5052716;28;20525;-84
2022/11/12 14:46:53;;;;;;;7.50;6.20;;;14.70;96.20;;;;;;5062108;28;20469;-84
2022/11/12 14:49:25;;;;;;;7.60;5.80;;;14.60;96.60;;;;;;5049416;28;20473;-84
2022/11/12 14:51:56;;;;;;;6.30;5.80;;;14.50;97.00;;;;;;5043651;28;20614;-84
2022/11/12 14:54:29;;;;;;;6.80;6.30;;;14.40;97.50;;;;;;5049308;28;20450;-82
2022/11/12 14:56:58;;;;;;;6.83;5.90;;;14.30;97.80;;;;;;5048625;28;20442;-84
2022/11/12 14:59:25;;;;;;;6.67;6.07;;;14.20;98.00;;;;;;5050483;28;20484;-84
2022/11/12 15:02:08;;;;;;;5.47;4.93;;;14.10;98.40;;;;;;5056421;28;20455;-83
2022/11/12 15:04:38;;;;;;;7.37;6.77;;;14.10;98.80;;;;;;5056959;28;20520;-83
2022/11/12 15:07:05;;;;;;;7.23;6.27;;;14.00;98.90;;;;;;5056578;28;20491;-84
2022/11/12 15:09:34;;;;;;;6.80;6.20;;;13.90;99.20;;;;;;5048442;28;21041;-85
2022/11/12 15:12:03;;;;;;;7.60;6.90;;;13.80;99.50;;;;;;5050393;28;20450;-83
2022/11/12 15:14:29;;;;;;;8.53;7.70;;;13.70;99.90;;;;;;5050279;28;20438;-83
2022/11/12 15:16:59;;;;;;;9.20;7.83;;;13.60;99.90;;;;;;5045969;28;20499;-84
2022/11/12 15:19:28;;;;;;;7.47;6.90;;;13.60;99.90;;;;;;5049103;28;20472;-83
2022/11/12 15:21:57;;;;;;;8.00;7.30;;;13.50;99.90;;;;;;5052422;28;20531;-84
2022/11/12 15:24:30;;;;;;;7.20;6.30;;;13.40;99.90;;;;;;5049448;28;20458;-83
2022/11/12 15:26:59;;;;;;;8.70;7.93;;;13.30;99.90;;;;;;5049715;28;20484;-83
2022/11/12 15:29:32;;;;;;;8.90;8.03;;;13.30;99.90;;;;;;5049681;28;20480;-83
2022/11/12 15:32:02;;;;;;;8.43;7.73;;;13.20;99.90;;;;;;5049185;28;20441;-83
2022/11/12 15:34:42;;;;;;;9.50;8.53;;;13.10;99.90;;;;;;5055799;28;20432;-85
2022/11/12 15:37:11;;;;;;;10.20;9.30;;;13.00;99.90;;;;;;5051323;28;20445;-83
2022/11/12 15:39:41;;;;;;;11.10;9.53;;;12.80;99.90;;;;;;5046847;28;20464;-83
2022/11/12 15:42:16;;;;;;;10.27;9.37;;;12.80;99.90;;;;;;5049571;28;20452;-83
2022/11/12 15:44:43;;;;;;;9.33;8.53;;;12.70;99.90;;;;;;5047233;28;21024;-83
2022/11/12 15:47:19;;;;;;;8.57;7.80;;;12.50;99.90;;;;;;5049251;28;20483;-84
2022/11/12 15:49:52;;;;;;;9.30;8.40;;;12.40;99.90;;;;;;5047896;28;20468;-83
2022/11/12 15:52:19;;;;;;;10.03;7.80;;;12.30;99.90;;;;;;5047065;28;20447;-84
2022/11/12 15:54:46;;;;;;;11.37;8.60;;;12.20;99.90;;;;;;5049263;28;20800;-84
2022/11/12 15:57:16;;;;;;;9.50;8.60;;;12.10;99.90;;;;;;5049322;28;20539;-84
2022/11/12 15:59:45;;;;;;;9.40;8.10;;;12.00;99.90;;;;;;5048463;28;20460;-83
2022/11/12 16:02:13;;;;;;;8.70;8.00;;;11.90;99.90;;;;;;5050264;28;20451;-84
2022/11/12 16:04:40;;;;;;;9.07;8.07;;;11.70;99.90;;;;;;5050157;28;20452;-84
2022/11/12 16:07:09;;;;;;;16.03;10.70;;;11.50;99.90;;;;;;5050348;28;20554;-83
2022/11/12 16:09:37;;;;;;;12.63;9.53;;;11.40;99.90;;;;;;5048409;28;20482;-83
2022/11/12 16:12:04;;;;;;;10.40;9.23;;;11.40;99.90;;;;;;5050594;28;20455;-83
2022/11/12 16:14:31;;;;;;;13.33;10.37;;;11.30;99.90;;;;;;5048979;28;20443;-82
2022/11/12 16:16:58;;;;;;;11.37;10.27;;;11.20;99.90;;;;;;5049680;28;20440;-83
2022/11/12 16:19:25;;;;;;;10.90;9.97;;;11.10;99.90;;;;;;5050293;28;20465;-84
2022/11/12 16:21:52;;;;;;;12.23;11.13;;;11.10;99.90;;;;;;5051688;28;20450;-82
2022/11/12 16:24:22;;;;;;;12.23;11.00;;;11.00;99.90;;;;;;5058641;28;20525;-83
2022/11/12 16:26:48;;;;;;;11.00;9.27;;;10.90;99.90;;;;;;5065201;28;20483;-82
2022/11/12 16:29:16;;;;;;;11.88;10.73;;;10.80;99.90;;;;;;5070222;28;20510;-82
2022/11/12 16:31:43;;;;;;;10.40;9.30;;;10.70;99.90;;;;;;5046591;28;20272;-83
2022/11/12 16:34:11;;;;;;;11.07;9.93;;;10.70;99.90;;;;;;5045147;28;20203;-82
2022/11/12 16:36:38;;;;;;;10.25;9.30;;;10.60;99.90;;;;;;5061471;28;20460;-83
2022/11/12 16:39:06;;;;;;;9.27;8.40;;;10.50;99.90;;;;;;5062130;28;20232;-82
2022/11/12 16:41:34;;;;;;;11.43;10.32;;;10.50;99.90;;;;;;5046937;28;20774;-82
2022/11/12 16:44:01;;;;;;;10.27;9.10;;;10.40;99.90;;;;;;5042678;28;20295;-82
2022/11/12 16:46:30;;;;;;;11.75;10.40;;;10.30;99.90;;;;;;5055916;28;20208;-82
2022/11/12 16:48:57;;;;;;;12.10;10.90;;;10.10;99.90;;;;;;5061868;28;20728;-82
2022/11/12 16:51:24;;;;;;;11.70;10.60;;;10.00;99.90;;;;;;5057251;28;20212;-82
2022/11/12 16:53:51;;;;;;;12.10;10.90;;;10.00;99.90;;;;;;5061821;28;20452;-82
2022/11/12 16:56:19;;;;;;;11.20;10.10;;;9.90;99.90;;;;;;5056567;28;20652;-82
2022/11/12 16:58:48;;;;;;;10.10;8.90;;;9.90;99.90;;;;;;5061877;28;20223;-82
2022/11/12 17:01:22;;;;;;;11.20;9.68;;;9.80;99.90;;;;;;5062107;28;20265;-82
2022/11/12 17:03:49;;;;;;;13.23;10.95;;;9.80;99.90;;;;;;5045126;28;20222;-82
2022/11/12 17:06:16;;;;;;;12.63;11.35;;;9.70;99.90;;;;;;5052761;28;20203;-82
2022/11/12 17:08:45;;;;;;;12.45;10.40;;;9.60;99.90;;;;;;5060803;28;20326;-83
2022/11/12 17:11:11;;;;;;;12.00;10.90;;;9.60;99.90;;;;;;5050958;28;20212;-82
2022/11/12 17:13:39;;;;;;;11.85;10.65;;;9.50;99.90;;;;;;5042165;28;20207;-83
2022/11/12 17:16:08;;;;;;;12.20;10.90;;;9.50;99.90;;;;;;5047292;28;20205;-82
2022/11/12 17:18:35;;;;;;;12.00;10.67;;;9.40;99.90;;;;;;5042043;28;20227;-82
2022/11/12 17:21:12;;;;;;;11.70;10.50;;;9.40;99.90;;;;;;5045818;28;20460;-82
2022/11/12 17:23:39;;;;;;;11.70;10.60;;;9.30;99.90;;;;;;5049579;28;20188;-82
2022/11/12 17:26:08;;;;;;;13.27;12.00;;;9.30;99.90;;;;;;5056260;28;20200;-82
2022/11/12 17:28:34;;;;;;;11.55;10.50;;;9.20;99.90;;;;;;5041098;28;20240;-82
2022/11/12 17:31:11;;;;;;;13.95;12.85;;;9.20;99.90;;;;;;5042056;28;20214;-84
2022/11/12 17:33:40;;;;;;;13.07;11.68;;;9.10;99.90;;;;;;5042134;28;20219;-82
2022/11/12 17:36:09;;;;;;;13.23;11.95;;;9.00;99.90;;;;;;5059093;28;20207;-82
2022/11/12 17:38:36;;;;;;;13.90;12.57;;;9.00;99.90;;;;;;5053041;28;20216;-82
2022/11/12 17:41:04;;;;;;;14.30;12.90;;;9.00;99.90;;;;;;5041364;28;20268;-82
2022/11/12 17:43:31;;;;;;;14.30;12.90;;;8.90;99.90;;;;;;5045261;28;20207;-82
2022/11/12 17:45:57;;;;;;;17.23;15.60;;;8.90;99.90;;;;;;5042217;28;20211;-81
2022/11/12 17:48:26;;;;;;;17.10;15.60;;;8.80;99.90;;;;;;5040948;28;20243;-82
2022/11/12 17:51:03;;;;;;;15.98;14.40;;;8.70;99.90;;;;;;5040913;28;20573;-83
2022/11/12 17:53:30;;;;;;;16.40;14.75;;;8.70;99.90;;;;;;5041207;28;20216;-82
2022/11/12 17:55:57;;;;;;;19.00;16.73;;;8.70;99.90;;;;;;5051066;28;20217;-83
2022/11/12 17:58:24;;;;;;;19.48;17.48;;;8.70;99.90;;;;;;5061007;28;20235;-83
2022/11/12 18:00:52;;;;;;;17.83;16.20;;;8.60;99.90;;;;;;5050942;28;20250;-83
2022/11/12 18:03:19;;;;;;;17.10;15.48;;;8.60;99.90;;;;;;5041120;28;20211;-82
2022/11/12 18:05:56;;;;;;;17.92;16.10;;;8.60;99.90;;;;;;5048093;28;20269;-83
2022/11/12 18:08:22;;;;;;;17.45;15.75;;;8.50;99.90;;;;;;5061619;28;20233;-83
2022/11/12 18:31:17;;;;;;;15.02;13.60;;;8.20;99.90;;;;;;5011001;28;20671;-86
2022/11/12 18:36:49;;;;;;;15.77;14.38;;;8.10;99.90;;;;;;5030694;28;20186;-87
2022/11/12 18:53:48;;;;;;;15.05;11.77;;;7.80;99.90;;;;;;5053158;28;20287;-86
2022/11/12 18:56:16;;;;;;;15.18;13.48;;;7.70;99.90;;;;;;5052817;28;20248;-85
2022/11/12 18:58:44;;;;;;;13.40;12.20;;;7.70;99.90;;;;;;5052054;28;20229;-87
2022/11/12 19:01:14;;;;;;;13.30;11.85;;;7.70;99.90;;;;;;5052850;28;20227;-86
2022/11/12 19:03:42;;;;;;;13.93;12.63;;;7.70;99.90;;;;;;5052223;28;20222;-86
2022/11/12 19:06:11;;;;;;;15.65;14.02;;;7.60;99.90;;;;;;5044588;28;20240;-87
2022/11/12 19:08:38;;;;;;;17.10;15.50;;;7.60;99.90;;;;;;5035464;28;20308;-87
2022/11/12 19:11:07;;;;;;;17.52;15.93;;;7.70;99.90;;;;;;5052707;28;20232;-86
2022/11/12 19:13:33;;;;;;;18.13;14.90;;;7.60;99.90;;;;;;5052226;28;20217;-87
2022/11/12 19:16:04;;;;;;;35.50;27.40;;;7.60;99.90;;;;;;5041895;28;20209;-87
2022/11/12 19:18:31;;;;;;;18.77;17.00;;;7.50;99.90;;;;;;5032258;28;20197;-88
2022/11/12 19:21:02;;;;;;;21.30;17.30;;;7.50;99.90;;;;;;5031782;28;20260;-88
2022/11/12 19:23:30;;;;;;;20.15;16.38;;;7.50;99.90;;;;;;5032212;28;20297;-89
2022/11/12 19:25:59;;;;;;;16.40;14.70;;;7.50;99.90;;;;;;5032150;28;20646;-89
2022/11/12 19:28:27;;;;;;;17.80;15.90;;;7.50;99.90;;;;;;5033395;28;20250;-87
2022/11/12 19:30:54;;;;;;;15.32;13.63;;;7.50;99.90;;;;;;5053483;28;20232;-83
2022/11/12 19:33:20;;;;;;;18.38;16.35;;;7.40;99.90;;;;;;5052064;28;20209;-85
2022/11/12 19:35:47;;;;;;;20.42;15.77;;;7.40;99.90;;;;;;5052993;28;20209;-86
2022/11/12 19:38:15;;;;;;;22.00;19.80;;;7.40;99.90;;;;;;5055865;28;20677;-88
2022/11/12 19:40:43;;;;;;;20.58;18.17;;;7.40;99.90;;;;;;5054720;28;20620;-88
2022/11/12 19:43:10;;;;;;;20.45;18.33;;;7.30;99.90;;;;;;5055522;28;20210;-88
2022/11/12 19:45:37;;;;;;;18.90;17.00;;;7.30;99.90;;;;;;5045140;28;20564;-88
2022/11/12 19:48:04;;;;;;;23.85;18.55;;;7.30;99.90;;;;;;5055304;28;20262;-88
2022/11/12 19:50:35;;;;;;;23.38;19.25;;;7.30;99.90;;;;;;5040212;28;20253;-88